Terminal Aerodrome Forecast
Issued by NWS

Home | Current Version | Previous Version | Graphics & Text | Print | Product List | Glossary On
Versions: 1 2 3 4 5 6 7 8 9 10 11 12 13 14
405
FTUS43 KMPX 151724
TAFAXN
TAF
KAXN 151724Z 1518/1618 21010KT P6SM SKC
     FM160900 22004KT 6SM BR FEW250
     FM161500 24005KT 3SM BR SCT010=

USA.gov is the U.S. government's official web portal to all federal, state and local government web resources and services.